createdAt,value
2023-01-17T00:02:02.195Z,0.80
2023-01-17T00:04:48.135Z,0.60
2023-01-17T00:07:36.223Z,0.60
2023-01-17T00:10:12.495Z,0.60
2023-01-17T00:12:39.884Z,0.70
2023-01-17T00:15:07.866Z,1.00
2023-01-17T00:17:35.201Z,1.13
2023-01-17T00:20:20.892Z,1.00
2023-01-17T00:23:06.802Z,1.20
2023-01-17T00:25:59.429Z,1.53
2023-01-17T00:28:27.484Z,1.50
2023-01-17T00:30:54.834Z,1.80
2023-01-17T00:33:23.479Z,1.40
2023-01-17T00:35:52.385Z,1.50
2023-01-17T00:38:28.508Z,1.70
2023-01-17T00:41:05.788Z,1.40
2023-01-17T00:43:51.915Z,1.53
2023-01-17T00:46:38.462Z,1.10
2023-01-17T00:49:24.593Z,1.33
2023-01-17T00:52:10.472Z,1.03
2023-01-17T00:54:56.161Z,1.40
2023-01-17T00:57:42.211Z,1.10
2023-01-17T01:00:28.988Z,0.90
2023-01-17T01:03:14.936Z,0.90
2023-01-17T01:06:01.196Z,0.93
2023-01-17T01:08:48.462Z,0.80
2023-01-17T01:11:37.314Z,0.83
2023-01-17T01:14:24.689Z,0.90
2023-01-17T01:17:10.827Z,0.80
2023-01-17T01:19:57.036Z,0.67
2023-01-17T01:22:43.101Z,1.07
2023-01-17T01:25:28.876Z,0.70
2023-01-17T01:28:24.906Z,0.77
2023-01-17T01:31:10.825Z,0.93
2023-01-17T01:33:38.351Z,0.80
2023-01-17T01:36:07.994Z,1.00
2023-01-17T01:38:35.625Z,1.00
2023-01-17T01:41:02.921Z,0.97
2023-01-17T01:43:45.375Z,0.90
2023-01-17T01:46:18.276Z,1.57
2023-01-17T01:48:58.145Z,1.00
2023-01-17T01:51:31.645Z,0.90
2023-01-17T01:54:06.926Z,0.70
2023-01-17T01:56:34.655Z,0.70
2023-01-17T01:59:04.667Z,1.10
2023-01-17T02:01:35.912Z,1.00
2023-01-17T02:04:04.306Z,0.80
2023-01-17T02:06:38.766Z,0.67
2023-01-17T02:09:09.018Z,0.90
2023-01-17T02:11:37.904Z,0.90
2023-01-17T02:14:05.699Z,0.83
2023-01-17T02:17:03.847Z,1.00
2023-01-17T02:19:58.734Z,0.70
2023-01-17T02:23:03.498Z,0.80
2023-01-17T02:26:00.476Z,0.80
2023-01-17T02:28:48.242Z,0.90
2023-01-17T02:31:26.472Z,1.03
2023-01-17T02:34:10.276Z,0.70
2023-01-17T02:36:45.136Z,0.80
2023-01-17T02:39:22.803Z,0.80
2023-01-17T02:41:58.046Z,1.97
2023-01-17T02:44:25.313Z,0.90
2023-01-17T02:46:55.475Z,1.73
2023-01-17T02:49:26.839Z,1.47
2023-01-17T02:52:21.852Z,1.60
2023-01-17T02:55:01.279Z,1.57
2023-01-17T02:58:13.232Z,1.30
2023-01-17T03:00:50.231Z,1.30
2023-01-17T03:03:47.833Z,1.60
2023-01-17T03:06:30.067Z,1.93
2023-01-17T03:08:57.270Z,1.87
2023-01-17T03:11:24.599Z,2.00
2023-01-17T03:13:56.858Z,2.30
2023-01-17T03:16:27.358Z,2.43
2023-01-17T03:18:55.107Z,3.17
2023-01-17T03:21:23.681Z,2.23
2023-01-17T03:23:51.321Z,2.17
2023-01-17T03:26:18.827Z,2.53
2023-01-17T03:28:46.136Z,2.57
2023-01-17T03:31:17.733Z,2.60
2023-01-17T03:33:44.897Z,2.50
2023-01-17T03:36:12.317Z,2.80
2023-01-17T03:38:39.690Z,2.40
2023-01-17T03:41:07.241Z,2.67
2023-01-17T03:43:34.520Z,2.00
2023-01-17T03:46:03.927Z,2.03
2023-01-17T03:48:31.926Z,2.87
2023-01-17T03:50:59.470Z,2.60
2023-01-17T03:53:26.797Z,3.00
2023-01-17T03:55:54.000Z,2.70
2023-01-17T03:58:21.243Z,2.80
2023-01-17T04:00:48.544Z,2.13
2023-01-17T04:03:15.832Z,2.57
2023-01-17T04:05:43.054Z,3.47
2023-01-17T04:08:10.275Z,3.30
2023-01-17T04:10:37.505Z,2.47
2023-01-17T04:13:04.703Z,2.87
2023-01-17T04:15:33.339Z,3.13
2023-01-17T04:18:01.209Z,3.13
2023-01-17T04:20:32.868Z,3.20
2023-01-17T04:23:00.274Z,2.57
2023-01-17T04:25:29.943Z,3.00
2023-01-17T04:27:58.610Z,2.97
2023-01-17T04:30:27.317Z,2.63
2023-01-17T04:32:55.323Z,2.70
2023-01-17T04:35:22.874Z,2.30
2023-01-17T04:37:50.649Z,3.00
2023-01-17T04:40:18.683Z,2.60
2023-01-17T04:42:46.085Z,3.50
2023-01-17T04:45:14.324Z,3.50
2023-01-17T04:47:41.559Z,3.20
2023-01-17T04:50:10.309Z,2.50
2023-01-17T04:52:37.536Z,2.90
2023-01-17T04:55:05.966Z,3.10
2023-01-17T04:57:33.217Z,3.23
2023-01-17T05:00:00.551Z,2.80
2023-01-17T05:02:27.777Z,2.57
2023-01-17T05:04:55.160Z,3.67
2023-01-17T05:07:22.470Z,3.20
2023-01-17T05:09:49.725Z,3.10
2023-01-17T05:12:16.905Z,2.67
2023-01-17T05:14:44.122Z,2.73
2023-01-17T05:17:11.555Z,3.13
2023-01-17T05:19:38.768Z,2.97
2023-01-17T05:22:14.795Z,2.60
2023-01-17T05:24:46.679Z,3.30
2023-01-17T05:27:14.845Z,3.27
2023-01-17T05:29:42.128Z,3.67
2023-01-17T05:32:09.389Z,3.03
2023-01-17T05:34:37.030Z,3.43
2023-01-17T05:37:04.297Z,3.40
2023-01-17T05:39:31.611Z,3.20
2023-01-17T05:41:59.550Z,3.30
2023-01-17T05:44:27.630Z,3.43
2023-01-17T05:46:56.145Z,3.27
2023-01-17T05:49:23.637Z,3.17
2023-01-17T05:51:53.463Z,3.00
2023-01-17T05:54:21.928Z,3.60
2023-01-17T05:56:49.070Z,3.23
2023-01-17T05:59:20.564Z,3.43
2023-01-17T06:01:54.278Z,3.20
2023-01-17T06:04:21.756Z,3.27
2023-01-17T06:06:49.041Z,3.33
2023-01-17T06:09:16.306Z,3.37
2023-01-17T06:11:43.584Z,3.13
2023-01-17T06:14:11.004Z,4.10
2023-01-17T06:16:38.175Z,3.57
2023-01-17T06:19:05.420Z,3.37
2023-01-17T06:21:32.618Z,3.43
2023-01-17T06:23:59.977Z,3.10
2023-01-17T06:26:27.180Z,4.50
2023-01-17T06:28:55.967Z,3.87
2023-01-17T06:31:23.246Z,4.20
2023-01-17T06:33:50.597Z,3.57
2023-01-17T06:36:17.770Z,3.70
2023-01-17T06:38:44.983Z,4.13
2023-01-17T06:41:12.162Z,3.73
2023-01-17T06:43:39.437Z,4.87
2023-01-17T06:46:06.674Z,4.53
2023-01-17T06:48:33.922Z,4.10
2023-01-17T06:51:01.141Z,4.53
2023-01-17T06:53:28.429Z,3.80
2023-01-17T06:55:57.575Z,3.70
2023-01-17T06:58:24.961Z,4.13
2023-01-17T07:00:52.346Z,3.47
2023-01-17T07:03:21.784Z,3.97
2023-01-17T07:05:49.695Z,3.77
2023-01-17T07:08:18.137Z,4.00
2023-01-17T07:10:46.700Z,4.30
2023-01-17T07:13:14.455Z,3.47
2023-01-17T07:15:41.763Z,4.67
2023-01-17T07:18:09.137Z,4.00
2023-01-17T07:20:37.983Z,3.80
2023-01-17T07:23:06.079Z,3.90
2023-01-17T07:25:33.397Z,4.17
2023-01-17T07:28:00.626Z,4.80
2023-01-17T07:30:27.914Z,4.30
2023-01-17T07:32:55.910Z,3.90
2023-01-17T07:35:26.685Z,4.03
2023-01-17T07:37:55.365Z,4.60
2023-01-17T07:40:23.640Z,4.43
2023-01-17T07:42:50.950Z,4.60
2023-01-17T07:45:18.930Z,4.00
2023-01-17T07:47:46.154Z,3.80
2023-01-17T07:50:13.767Z,3.63
2023-01-17T07:52:41.116Z,4.23
2023-01-17T07:55:09.378Z,4.10
2023-01-17T07:57:36.794Z,4.00
2023-01-17T08:00:05.143Z,4.63
2023-01-17T08:02:39.540Z,4.10
2023-01-17T08:05:07.087Z,4.23
2023-01-17T08:07:34.729Z,4.20
2023-01-17T08:10:01.958Z,4.10
2023-01-17T08:12:29.511Z,3.87
2023-01-17T08:14:57.880Z,4.23
2023-01-17T08:17:25.298Z,4.27
2023-01-17T08:19:53.142Z,3.80
2023-01-17T08:22:23.003Z,4.60
2023-01-17T08:24:50.234Z,4.53
2023-01-17T08:27:17.597Z,4.13
2023-01-17T08:29:48.235Z,4.10
2023-01-17T08:32:16.074Z,4.00
2023-01-17T08:34:43.381Z,4.27
2023-01-17T08:37:10.713Z,4.30
2023-01-17T08:39:37.977Z,3.67
2023-01-17T08:42:05.396Z,5.77
2023-01-17T08:44:32.727Z,5.00
2023-01-17T08:47:00.807Z,4.07
2023-01-17T08:49:30.643Z,4.10
2023-01-17T08:51:57.979Z,3.60
2023-01-17T08:54:25.320Z,4.00
2023-01-17T08:56:55.748Z,4.20
2023-01-17T08:59:23.487Z,3.83
2023-01-17T09:01:52.506Z,4.03
2023-01-17T09:04:20.006Z,4.00
2023-01-17T09:06:48.426Z,3.80
2023-01-17T09:09:17.700Z,3.70
2023-01-17T09:11:45.031Z,3.87
2023-01-17T09:14:13.423Z,3.87
2023-01-17T09:16:40.677Z,3.77
2023-01-17T09:19:09.021Z,3.40
2023-01-17T09:21:36.236Z,3.83
2023-01-17T09:24:03.764Z,4.33
2023-01-17T09:26:31.349Z,4.27
2023-01-17T09:28:58.801Z,3.70
2023-01-17T09:31:29.435Z,3.27
2023-01-17T09:33:57.861Z,3.87
2023-01-17T09:36:31.853Z,2.87
2023-01-17T09:38:59.486Z,3.77
2023-01-17T09:41:31.165Z,3.77
2023-01-17T09:44:13.124Z,3.30
2023-01-17T09:46:44.767Z,3.57
2023-01-17T09:49:34.558Z,3.60
2023-01-17T09:52:02.278Z,3.50
2023-01-17T09:54:35.747Z,3.23
2023-01-17T09:57:14.728Z,4.17
2023-01-17T10:00:02.086Z,3.83
2023-01-17T10:03:05.776Z,3.80
2023-01-17T10:05:37.646Z,3.00
2023-01-17T10:08:18.014Z,2.97
2023-01-17T10:10:58.429Z,3.37
2023-01-17T10:13:56.020Z,3.40
2023-01-17T10:16:26.122Z,4.13
2023-01-17T10:19:11.996Z,3.40
2023-01-17T10:22:10.245Z,3.30
2023-01-17T10:25:16.179Z,3.27
2023-01-17T10:27:56.569Z,3.20
2023-01-17T10:30:34.656Z,2.77
2023-01-17T10:33:38.203Z,3.30
2023-01-17T10:36:15.307Z,2.90
2023-01-17T10:38:47.008Z,3.27
2023-01-17T10:41:21.778Z,2.80
2023-01-17T10:44:03.358Z,3.37
2023-01-17T10:46:47.384Z,2.80
2023-01-17T10:49:19.952Z,3.40
2023-01-17T10:52:31.047Z,3.90
2023-01-17T10:55:39.046Z,3.13
2023-01-17T10:58:11.748Z,3.13
2023-01-17T11:01:03.135Z,2.73
2023-01-17T11:03:31.051Z,3.00
2023-01-17T11:06:15.031Z,2.80
2023-01-17T11:08:56.392Z,3.13
2023-01-17T11:11:26.022Z,3.20
2023-01-17T11:13:55.439Z,2.90
2023-01-17T11:16:28.681Z,3.70
2023-01-17T11:19:17.405Z,4.17
2023-01-17T11:21:58.583Z,3.17
2023-01-17T11:24:48.600Z,3.00
2023-01-17T11:27:27.726Z,3.50
2023-01-17T11:30:18.494Z,3.40
2023-01-17T11:32:53.912Z,3.30
2023-01-17T11:35:25.670Z,2.80
2023-01-17T11:38:02.097Z,2.63
2023-01-17T11:40:43.917Z,3.10
2023-01-17T11:43:25.629Z,2.80
2023-01-17T11:46:20.642Z,3.07
2023-01-17T11:48:53.484Z,2.67
2023-01-17T11:51:35.472Z,2.70
2023-01-17T11:54:08.910Z,3.00
2023-01-17T11:56:37.215Z,3.00
2023-01-17T11:59:19.214Z,2.97
2023-01-17T12:02:04.344Z,2.70
2023-01-17T12:04:40.007Z,3.57
2023-01-17T12:07:16.500Z,2.50
2023-01-17T12:09:46.552Z,2.80
2023-01-17T12:13:04.141Z,2.73
2023-01-17T12:15:53.214Z,3.23
2023-01-17T12:18:39.063Z,3.63
2023-01-17T12:21:20.605Z,2.63
2023-01-17T12:24:03.415Z,3.67
2023-01-17T12:26:41.882Z,2.53
2023-01-17T12:29:14.908Z,1.93
2023-01-17T12:32:04.054Z,2.17
2023-01-17T12:34:43.152Z,2.20
2023-01-17T12:37:18.058Z,2.17
2023-01-17T12:40:05.672Z,2.00
2023-01-17T12:42:40.988Z,1.77
2023-01-17T12:45:12.119Z,1.97
2023-01-17T12:47:49.947Z,1.67
2023-01-17T12:50:28.500Z,2.00
2023-01-17T12:53:32.180Z,1.80
2023-01-17T12:56:22.531Z,1.30
2023-01-17T12:58:55.508Z,1.80
2023-01-17T13:01:31.638Z,2.00
2023-01-17T13:04:05.009Z,2.10
2023-01-17T13:06:45.823Z,1.70
2023-01-17T13:09:17.308Z,2.10
2023-01-17T13:11:55.311Z,1.53
2023-01-17T13:14:23.448Z,1.77
2023-01-17T13:16:58.712Z,1.77
2023-01-17T13:19:43.770Z,1.37
2023-01-17T13:22:21.783Z,1.37
2023-01-17T13:25:16.191Z,1.03
2023-01-17T13:28:03.325Z,1.60
2023-01-17T13:30:45.915Z,1.10
2023-01-17T13:33:40.920Z,1.20
2023-01-17T13:36:20.626Z,1.57
2023-01-17T13:39:00.256Z,1.57
2023-01-17T13:41:52.823Z,1.30
2023-01-17T13:44:24.322Z,1.53
2023-01-17T13:47:04.244Z,2.13
2023-01-17T13:49:51.329Z,2.00
2023-01-17T13:52:22.981Z,1.40
2023-01-17T13:54:58.531Z,1.50
2023-01-17T13:57:43.474Z,1.80
2023-01-17T14:00:21.468Z,1.97
2023-01-17T14:02:50.563Z,1.67
2023-01-17T14:05:41.663Z,2.10
2023-01-17T14:08:20.589Z,2.17
2023-01-17T14:10:53.954Z,1.80
2023-01-17T14:13:38.646Z,2.60
2023-01-17T14:16:21.949Z,1.80
2023-01-17T14:18:49.745Z,2.10
2023-01-17T14:21:22.497Z,1.90
2023-01-17T14:24:00.472Z,1.70
2023-01-17T14:26:59.195Z,1.50
2023-01-17T14:29:53.700Z,1.83
2023-01-17T14:32:31.465Z,1.40
2023-01-17T14:34:58.985Z,1.43
2023-01-17T14:37:30.043Z,1.70
2023-01-17T14:39:57.540Z,1.53
2023-01-17T14:42:27.866Z,1.90
2023-01-17T14:45:08.094Z,2.50
2023-01-17T14:47:39.372Z,1.90
2023-01-17T14:50:24.517Z,1.70
2023-01-17T14:53:13.768Z,1.70
2023-01-17T14:55:47.208Z,1.50
2023-01-17T14:58:41.537Z,1.80
2023-01-17T15:01:13.850Z,1.67
2023-01-17T15:03:48.769Z,1.50
2023-01-17T15:06:40.304Z,2.00
2023-01-17T15:09:19.637Z,1.73
2023-01-17T15:11:48.519Z,2.03
2023-01-17T15:14:23.405Z,2.10
2023-01-17T15:16:52.122Z,1.83
2023-01-17T15:19:20.156Z,2.80
2023-01-17T15:21:52.827Z,1.80
2023-01-17T15:24:24.078Z,2.60
2023-01-17T15:26:51.790Z,2.17
2023-01-17T15:29:33.909Z,1.90
2023-01-17T15:32:06.460Z,2.40
2023-01-17T15:34:35.721Z,2.43
2023-01-17T15:37:07.911Z,2.33
2023-01-17T15:39:40.180Z,2.10
2023-01-17T15:42:19.513Z,2.13
2023-01-17T15:44:51.315Z,2.80
2023-01-17T15:47:34.039Z,2.40
2023-01-17T15:50:26.503Z,2.57
2023-01-17T15:53:00.950Z,2.40
2023-01-17T15:55:36.664Z,2.60
2023-01-17T15:58:05.706Z,2.63
2023-01-17T16:00:41.855Z,2.87
2023-01-17T16:03:29.991Z,3.30
2023-01-17T16:06:00.231Z,2.83
2023-01-17T16:08:38.641Z,3.23
2023-01-17T16:11:08.144Z,3.57
2023-01-17T16:13:42.313Z,3.40
2023-01-17T16:16:19.739Z,4.30
2023-01-17T16:18:48.234Z,4.20
2023-01-17T16:21:27.976Z,4.87
2023-01-17T16:23:56.369Z,5.77
2023-01-17T16:26:24.379Z,4.90
2023-01-17T16:28:51.998Z,4.70
2023-01-17T16:31:19.500Z,5.30
2023-01-17T16:33:49.407Z,4.37
2023-01-17T16:36:21.060Z,4.17
2023-01-17T16:38:50.275Z,4.63
2023-01-17T16:41:18.123Z,4.13
2023-01-17T16:43:45.499Z,4.17
2023-01-17T16:46:12.905Z,4.67
2023-01-17T16:48:40.216Z,4.00
2023-01-17T16:51:08.361Z,4.30
2023-01-17T16:53:36.704Z,3.77
2023-01-17T16:56:11.871Z,3.93
2023-01-17T16:58:39.931Z,4.00
2023-01-17T17:01:16.098Z,4.43
2023-01-17T17:03:44.822Z,4.30
2023-01-17T17:06:12.835Z,3.70
2023-01-17T17:08:40.184Z,4.23
2023-01-17T17:11:12.303Z,4.00
2023-01-17T17:13:41.091Z,4.77
2023-01-17T17:16:32.934Z,4.40
2023-01-17T17:19:03.240Z,5.00
2023-01-17T17:21:31.924Z,6.10
2023-01-17T17:24:01.113Z,6.33
2023-01-17T17:26:31.615Z,4.40
2023-01-17T17:28:58.976Z,4.87
2023-01-17T17:31:26.539Z,5.40
2023-01-17T17:34:03.730Z,6.30
2023-01-17T17:36:31.506Z,5.60
2023-01-17T17:38:59.872Z,6.70
2023-01-17T17:41:29.528Z,6.00
2023-01-17T17:43:57.528Z,6.40
2023-01-17T17:46:27.325Z,6.60
2023-01-17T17:48:59.265Z,7.13
2023-01-17T17:51:38.472Z,6.90
2023-01-17T17:54:13.801Z,6.77
2023-01-17T17:56:46.468Z,9.00
2023-01-17T17:59:20.353Z,7.33
2023-01-17T18:01:48.396Z,7.27
2023-01-17T18:04:16.232Z,6.90
2023-01-17T18:06:44.458Z,5.30
2023-01-17T18:09:13.088Z,6.10
2023-01-17T18:11:42.364Z,5.73
2023-01-17T18:14:13.550Z,5.53
2023-01-17T18:16:44.632Z,5.80
2023-01-17T18:19:20.098Z,6.30
2023-01-17T18:21:48.704Z,7.30
2023-01-17T18:24:18.398Z,6.47
2023-01-17T18:26:51.206Z,6.53
2023-01-17T18:29:20.829Z,7.60
2023-01-17T18:31:50.083Z,8.47
2023-01-17T18:34:21.224Z,8.20
2023-01-17T18:36:48.601Z,7.37
2023-01-17T18:39:20.566Z,7.33
2023-01-17T18:41:48.385Z,8.23
2023-01-17T18:44:16.344Z,9.20
2023-01-17T18:46:43.796Z,9.67
2023-01-17T18:49:12.629Z,7.63
2023-01-17T18:51:40.126Z,8.70
2023-01-17T18:54:08.722Z,8.57
2023-01-17T18:56:39.507Z,8.77
2023-01-17T18:59:07.735Z,8.07
2023-01-17T19:01:36.368Z,7.83
2023-01-17T19:04:05.782Z,9.30
2023-01-17T19:06:39.337Z,9.63
2023-01-17T19:09:08.533Z,9.73
2023-01-17T19:11:36.830Z,8.73
2023-01-17T19:14:05.824Z,10.13
2023-01-17T19:16:39.142Z,8.33
2023-01-17T19:19:10.161Z,8.73
2023-01-17T19:21:40.424Z,8.77
2023-01-17T19:24:08.042Z,9.90
2023-01-17T19:26:35.549Z,11.53
2023-01-17T19:29:05.237Z,11.87
2023-01-17T19:31:39.865Z,11.33
2023-01-17T19:34:07.808Z,11.20
2023-01-17T19:36:37.545Z,12.23
2023-01-17T19:39:07.568Z,10.40
2023-01-17T19:41:37.846Z,11.53
2023-01-17T19:44:07.380Z,10.97
2023-01-17T19:46:35.928Z,12.03
2023-01-17T19:49:07.037Z,10.83
2023-01-17T19:51:34.838Z,11.53
2023-01-17T19:54:04.054Z,10.90
2023-01-17T19:56:31.953Z,10.47
2023-01-17T19:59:01.859Z,11.33
2023-01-17T20:01:32.533Z,11.10
2023-01-17T20:04:01.038Z,10.53
2023-01-17T20:06:31.491Z,8.73
2023-01-17T20:08:58.916Z,9.93
2023-01-17T20:11:29.608Z,9.33
2023-01-17T20:13:58.669Z,8.33
2023-01-17T20:16:27.934Z,9.23
2023-01-17T20:18:55.734Z,9.07
2023-01-17T20:21:25.248Z,8.30
2023-01-17T20:23:54.555Z,9.87
2023-01-17T20:26:29.063Z,9.60
2023-01-17T20:28:57.020Z,9.40
2023-01-17T20:31:25.523Z,9.90
2023-01-17T20:33:54.981Z,8.57
2023-01-17T20:36:24.693Z,8.73
2023-01-17T20:38:53.149Z,8.43
2023-01-17T20:41:27.070Z,7.90
2023-01-17T20:43:56.743Z,8.03
2023-01-17T20:46:26.414Z,8.03
2023-01-17T20:48:55.959Z,8.97
2023-01-17T20:51:26.046Z,7.37
2023-01-17T20:53:56.416Z,8.00
2023-01-17T20:56:24.822Z,7.43
2023-01-17T20:58:54.066Z,7.60
2023-01-17T21:01:22.825Z,8.27
2023-01-17T21:03:53.029Z,9.17
2023-01-17T21:06:22.425Z,7.90
2023-01-17T21:08:50.393Z,8.73
2023-01-17T21:11:24.242Z,8.97
2023-01-17T21:13:52.238Z,8.50
2023-01-17T21:16:22.928Z,8.57
2023-01-17T21:18:51.413Z,9.17
2023-01-17T21:21:24.211Z,8.17
2023-01-17T21:23:53.908Z,9.17
2023-01-17T21:26:22.450Z,8.43
2023-01-17T21:28:50.860Z,8.57
2023-01-17T21:31:25.744Z,8.20
2023-01-17T21:33:56.063Z,8.50
2023-01-17T21:36:27.059Z,7.67
2023-01-17T21:38:57.174Z,9.73
2023-01-17T21:41:29.774Z,10.13
2023-01-17T21:43:59.913Z,9.90
2023-01-17T21:46:28.998Z,9.43
2023-01-17T21:48:57.657Z,9.70
2023-01-17T21:51:45.418Z,10.47
2023-01-17T21:54:12.864Z,11.80
2023-01-17T21:56:58.966Z,9.23
2023-01-17T21:59:26.250Z,11.57
2023-01-17T22:01:53.825Z,10.33
2023-01-17T22:04:21.245Z,10.87
2023-01-17T22:06:48.492Z,11.23
2023-01-17T22:09:15.929Z,10.57
2023-01-17T22:11:43.270Z,13.63
2023-01-17T22:14:10.926Z,12.03
2023-01-17T22:16:38.311Z,12.73
2023-01-17T22:19:05.773Z,13.03
2023-01-17T22:21:33.139Z,14.07
2023-01-17T22:24:00.704Z,15.17
2023-01-17T22:26:31.627Z,13.80
2023-01-17T22:29:02.588Z,14.60
2023-01-17T22:31:30.812Z,15.73
2023-01-17T22:34:00.928Z,14.63
2023-01-17T22:36:29.750Z,14.77
2023-01-17T22:38:57.295Z,15.87
2023-01-17T22:41:29.689Z,14.70
2023-01-17T22:43:59.763Z,13.97
2023-01-17T22:46:30.479Z,14.10
2023-01-17T22:48:58.117Z,12.47
2023-01-17T22:51:27.738Z,12.47
2023-01-17T22:53:58.416Z,12.90
2023-01-17T22:56:28.854Z,13.10
2023-01-17T22:58:57.240Z,14.07
2023-01-17T23:01:29.782Z,11.27
2023-01-17T23:04:02.575Z,12.70
2023-01-17T23:06:35.547Z,12.37
2023-01-17T23:09:10.445Z,12.13
2023-01-17T23:11:43.168Z,11.37
2023-01-17T23:14:23.828Z,11.67
2023-01-17T23:17:18.393Z,10.27
2023-01-17T23:19:54.325Z,11.30
2023-01-17T23:22:24.481Z,10.43
2023-01-17T23:24:57.293Z,10.80
2023-01-17T23:27:48.032Z,10.03
2023-01-17T23:30:16.969Z,11.33
2023-01-17T23:32:50.033Z,11.97
2023-01-17T23:35:19.003Z,10.57
2023-01-17T23:38:04.651Z,12.33
2023-01-17T23:40:33.530Z,12.43
2023-01-17T23:43:19.682Z,12.03
2023-01-17T23:45:47.377Z,12.07
2023-01-17T23:48:14.878Z,11.60
2023-01-17T23:50:46.910Z,12.17
2023-01-17T23:53:23.790Z,12.23
2023-01-17T23:55:56.438Z,12.67
2023-01-17T23:58:25.667Z,11.70
